createdAt,value
2019-03-13T00:01:24.864Z,65.70
2019-03-13T00:03:51.767Z,65.69
2019-03-13T00:06:19.329Z,65.75
2019-03-13T00:08:46.907Z,66.05
2019-03-13T00:11:14.390Z,65.95
2019-03-13T00:13:41.483Z,66.11
2019-03-13T00:16:08.227Z,66.15
2019-03-13T00:18:34.931Z,65.79
2019-03-13T00:21:01.570Z,66.05
2019-03-13T00:23:28.265Z,67.71
2019-03-13T00:25:54.969Z,67.53
2019-03-13T00:28:21.711Z,66.65
2019-03-13T00:30:48.431Z,67.50
2019-03-13T00:33:15.130Z,66.59
2019-03-13T00:35:41.758Z,67.06
2019-03-13T00:38:08.549Z,67.68
2019-03-13T00:40:35.272Z,67.79
2019-03-13T00:43:02.054Z,67.26
2019-03-13T00:45:28.759Z,67.02
2019-03-13T00:47:55.512Z,67.19
2019-03-13T00:50:32.466Z,67.42
2019-03-13T00:52:59.248Z,67.33
2019-03-13T00:55:26.510Z,68.42
2019-03-13T00:57:53.170Z,68.78
2019-03-13T01:00:38.830Z,68.46
2019-03-13T01:03:07.396Z,68.79
2019-03-13T01:05:52.642Z,69.17
2019-03-13T01:08:19.317Z,70.12
2019-03-13T01:10:46.026Z,71.30
2019-03-13T01:13:12.650Z,71.27
2019-03-13T01:15:39.413Z,70.49
2019-03-13T01:18:06.126Z,69.74
2019-03-13T01:20:32.777Z,70.00
2019-03-13T01:22:59.434Z,69.80
2019-03-13T01:25:26.162Z,70.54
2019-03-13T01:27:52.773Z,70.94
2019-03-13T01:30:19.405Z,71.14
2019-03-13T01:32:53.799Z,71.33
2019-03-13T01:35:22.249Z,70.70
2019-03-13T01:37:48.914Z,70.57
2019-03-13T01:40:15.638Z,70.21
2019-03-13T01:42:42.263Z,70.76
2019-03-13T01:45:10.059Z,70.35
2019-03-13T01:47:36.751Z,70.77
2019-03-13T01:50:06.654Z,71.13
2019-03-13T01:52:33.386Z,70.82
2019-03-13T01:55:00.130Z,70.38
2019-03-13T01:57:26.974Z,70.34
2019-03-13T01:59:53.637Z,70.49
2019-03-13T02:02:20.311Z,70.36
2019-03-13T02:04:46.997Z,70.06
2019-03-13T02:07:13.635Z,69.75
2019-03-13T02:09:40.346Z,70.16
2019-03-13T02:12:06.982Z,70.35
2019-03-13T02:14:33.749Z,70.44
2019-03-13T02:17:00.485Z,70.01
2019-03-13T02:19:27.129Z,69.63
2019-03-13T02:21:53.794Z,68.86
2019-03-13T02:24:20.527Z,68.97
2019-03-13T02:26:47.144Z,68.72
2019-03-13T02:29:13.842Z,69.16
2019-03-13T02:31:40.549Z,69.31
2019-03-13T02:34:07.208Z,69.11
2019-03-13T02:36:33.909Z,69.79
2019-03-13T02:39:00.630Z,69.25
2019-03-13T02:41:27.423Z,69.38
2019-03-13T02:43:54.120Z,70.11
2019-03-13T02:46:20.823Z,69.14
2019-03-13T02:48:47.452Z,68.78
2019-03-13T02:51:14.146Z,68.68
2019-03-13T02:53:40.823Z,68.44
2019-03-13T02:56:07.548Z,69.63
2019-03-13T02:58:34.310Z,68.52
2019-03-13T03:01:11.774Z,68.72
2019-03-13T03:03:40.189Z,69.01
2019-03-13T03:06:06.823Z,68.90
2019-03-13T03:08:33.542Z,68.68
2019-03-13T03:11:00.149Z,70.42
2019-03-13T03:13:26.760Z,70.76
2019-03-13T03:15:53.432Z,69.56
2019-03-13T03:18:20.042Z,69.59
2019-03-13T03:20:46.660Z,69.42
2019-03-13T03:23:13.565Z,70.30
2019-03-13T03:25:40.188Z,69.77
2019-03-13T03:28:06.788Z,70.45
2019-03-13T03:30:33.491Z,70.14
2019-03-13T03:33:00.124Z,70.38
2019-03-13T03:35:26.724Z,70.45
2019-03-13T03:37:53.460Z,70.33
2019-03-13T03:40:22.886Z,71.34
2019-03-13T03:42:49.222Z,71.35
2019-03-13T03:45:16.374Z,70.22
2019-03-13T03:47:43.051Z,70.27
2019-03-13T03:50:12.131Z,69.67
2019-03-13T03:52:38.836Z,68.98
2019-03-13T03:55:07.900Z,69.27
2019-03-13T03:57:34.562Z,69.89
2019-03-13T04:00:05.229Z,69.72
2019-03-13T04:02:32.151Z,70.67
2019-03-13T04:04:58.853Z,72.08
2019-03-13T04:07:25.580Z,72.32
2019-03-13T04:09:52.180Z,73.54
2019-03-13T04:12:18.914Z,73.55
2019-03-13T04:14:45.595Z,73.00
2019-03-13T04:17:12.320Z,72.93
2019-03-13T04:19:39.025Z,72.53
2019-03-13T04:22:05.738Z,71.93
2019-03-13T04:24:32.345Z,70.91
2019-03-13T04:26:59.021Z,71.39
2019-03-13T04:29:25.722Z,71.33
2019-03-13T04:31:52.539Z,71.47
2019-03-13T04:34:19.262Z,71.75
2019-03-13T04:36:45.962Z,71.19
2019-03-13T04:39:12.560Z,71.65
2019-03-13T04:41:39.209Z,71.24
2019-03-13T04:44:06.056Z,71.41
2019-03-13T04:46:32.657Z,71.00
2019-03-13T04:48:59.295Z,70.66
2019-03-13T04:51:25.991Z,71.18
2019-03-13T04:53:52.591Z,70.50
2019-03-13T04:56:19.232Z,71.19
2019-03-13T04:58:45.906Z,70.81
2019-03-13T05:01:12.586Z,70.60
2019-03-13T05:03:39.222Z,70.72
2019-03-13T05:06:09.534Z,70.92
2019-03-13T05:08:44.949Z,70.52
2019-03-13T05:11:07.434Z,70.61
2019-03-13T05:13:34.130Z,70.35
2019-03-13T05:16:00.863Z,71.22
2019-03-13T05:18:27.572Z,71.06
2019-03-13T05:20:54.303Z,70.63
2019-03-13T05:23:20.901Z,70.98
2019-03-13T05:25:47.848Z,70.78
2019-03-13T05:28:14.562Z,70.87
2019-03-13T05:30:41.165Z,70.79
2019-03-13T05:33:07.831Z,70.86
2019-03-13T05:35:34.531Z,70.57
2019-03-13T05:38:01.255Z,69.82
2019-03-13T05:40:27.957Z,70.02
2019-03-13T05:42:54.655Z,70.48
2019-03-13T05:45:21.286Z,70.41
2019-03-13T05:47:47.992Z,70.26
2019-03-13T05:50:15.074Z,69.88
2019-03-13T05:52:41.804Z,69.99
2019-03-13T05:55:08.727Z,70.29
2019-03-13T05:57:35.443Z,70.36
2019-03-13T06:00:04.181Z,70.43
2019-03-13T06:02:30.924Z,70.06
2019-03-13T06:04:57.624Z,70.36
2019-03-13T06:07:24.455Z,70.53
2019-03-13T06:09:51.163Z,70.16
2019-03-13T06:12:17.989Z,70.53
2019-03-13T06:14:44.586Z,70.11
2019-03-13T06:17:11.247Z,70.06
2019-03-13T06:19:37.979Z,69.78
2019-03-13T06:22:04.586Z,70.00
2019-03-13T06:24:31.191Z,70.15
2019-03-13T06:26:57.878Z,70.32
2019-03-13T06:29:24.474Z,69.44
2019-03-13T06:31:51.104Z,69.47
2019-03-13T06:34:17.794Z,69.24
2019-03-13T06:36:44.419Z,69.13
2019-03-13T06:39:11.023Z,69.44
2019-03-13T06:41:37.760Z,68.93
2019-03-13T06:44:04.386Z,68.65
2019-03-13T06:46:31.022Z,68.75
2019-03-13T06:48:57.760Z,67.52
2019-03-13T06:51:24.506Z,66.21
2019-03-13T06:53:51.247Z,66.50
2019-03-13T06:56:17.981Z,66.84
2019-03-13T06:58:58.338Z,66.84
2019-03-13T07:01:26.928Z,66.84
2019-03-13T07:03:55.511Z,67.27
2019-03-13T07:06:26.755Z,67.69
2019-03-13T07:09:01.071Z,66.84
2019-03-13T07:11:34.152Z,65.90
2019-03-13T07:14:19.235Z,65.26
2019-03-13T07:16:50.479Z,65.77
2019-03-13T07:19:35.441Z,66.80
2019-03-13T07:22:03.921Z,64.80
2019-03-13T07:24:37.955Z,66.51
2019-03-13T07:27:06.465Z,64.92
2019-03-13T07:29:35.495Z,63.41
2019-03-13T07:32:10.347Z,63.32
2019-03-13T07:34:38.867Z,63.33
2019-03-13T07:37:10.283Z,64.48
2019-03-13T07:39:50.921Z,64.56
2019-03-13T07:42:28.730Z,63.15
2019-03-13T07:44:58.430Z,63.48
2019-03-13T07:47:29.564Z,62.98
2019-03-13T07:50:09.961Z,63.08
2019-03-13T07:52:38.514Z,62.33
2019-03-13T07:55:11.092Z,59.42
2019-03-13T07:57:45.408Z,56.22
2019-03-13T08:00:13.992Z,58.67
2019-03-13T08:02:48.931Z,60.02
2019-03-13T08:05:20.386Z,59.45
2019-03-13T08:07:55.724Z,59.57
2019-03-13T08:10:30.049Z,59.35
2019-03-13T08:12:58.724Z,56.28
2019-03-13T08:15:31.341Z,54.79
2019-03-13T08:17:59.981Z,54.59
2019-03-13T08:20:28.480Z,51.99
2019-03-13T08:23:02.980Z,52.28
2019-03-13T08:25:40.575Z,52.50
2019-03-13T08:28:09.155Z,52.03
2019-03-13T08:30:43.165Z,51.62
2019-03-13T08:33:26.496Z,51.53
2019-03-13T08:36:11.474Z,50.90
2019-03-13T08:38:42.911Z,48.52
2019-03-13T08:41:11.354Z,49.20
2019-03-13T08:43:42.986Z,49.13
2019-03-13T08:46:29.548Z,49.18
2019-03-13T08:49:15.032Z,48.51
2019-03-13T08:51:46.491Z,49.51
2019-03-13T08:54:31.999Z,46.91
2019-03-13T08:57:06.373Z,46.07
2019-03-13T08:59:41.004Z,46.32
2019-03-13T09:02:27.096Z,46.40
2019-03-13T09:05:01.816Z,47.62
2019-03-13T09:07:34.399Z,47.42
2019-03-13T09:10:12.009Z,47.49
2019-03-13T09:12:52.549Z,46.87
2019-03-13T09:15:27.406Z,47.85
2019-03-13T09:17:58.934Z,47.65
2019-03-13T09:20:27.520Z,46.88
2019-03-13T09:23:01.842Z,46.78
2019-03-13T09:25:40.856Z,47.49
2019-03-13T09:28:24.802Z,47.96
2019-03-13T09:30:53.492Z,46.60
2019-03-13T09:33:21.903Z,45.89
2019-03-13T09:35:56.489Z,45.25
2019-03-13T09:38:27.847Z,44.18
2019-03-13T09:41:05.429Z,43.04
2019-03-13T09:43:50.581Z,41.75
2019-03-13T09:46:19.094Z,40.37
2019-03-13T09:48:47.531Z,37.48
2019-03-13T09:51:16.014Z,38.05
2019-03-13T09:53:44.494Z,34.02
2019-03-13T09:56:15.645Z,34.85
2019-03-13T09:58:44.144Z,33.02
2019-03-13T10:01:24.658Z,30.60
2019-03-13T10:03:55.999Z,30.76
2019-03-13T10:06:24.599Z,30.79
2019-03-13T10:09:09.854Z,31.83
2019-03-13T10:11:47.571Z,31.35
2019-03-13T10:14:26.713Z,29.91
2019-03-13T10:17:09.509Z,28.65
2019-03-13T10:19:35.700Z,30.04
2019-03-13T10:22:04.094Z,30.52
2019-03-13T10:24:35.682Z,31.59
2019-03-13T10:27:21.081Z,29.93
2019-03-13T10:29:58.649Z,29.93
2019-03-13T10:32:33.289Z,27.65
2019-03-13T10:35:11.121Z,29.91
2019-03-13T10:37:48.360Z,27.21
2019-03-13T10:40:28.934Z,29.10
2019-03-13T10:42:58.435Z,30.94
2019-03-13T10:45:27.333Z,30.83
2019-03-13T10:48:01.363Z,30.85
2019-03-13T10:50:29.920Z,28.33
2019-03-13T10:53:10.170Z,28.25
2019-03-13T10:55:55.514Z,27.65
2019-03-13T10:58:33.326Z,25.26
2019-03-13T11:01:02.855Z,25.68
2019-03-13T11:03:32.440Z,27.52
2019-03-13T11:06:00.886Z,28.63
2019-03-13T11:08:46.028Z,27.20
2019-03-13T11:11:17.667Z,25.46
2019-03-13T11:14:14.839Z,26.79
2019-03-13T11:16:38.916Z,26.22
2019-03-13T11:19:10.099Z,27.10
2019-03-13T11:21:44.692Z,28.38
2019-03-13T11:24:13.119Z,28.33
2019-03-13T11:26:47.197Z,29.42
2019-03-13T11:29:21.708Z,29.61
2019-03-13T11:31:53.242Z,28.73
2019-03-13T11:34:24.158Z,29.16
2019-03-13T11:36:52.675Z,29.49
2019-03-13T11:39:24.374Z,30.54
2019-03-13T11:42:02.174Z,30.21
2019-03-13T11:44:37.172Z,29.73
2019-03-13T11:47:22.631Z,29.08
2019-03-13T11:50:02.975Z,30.23
2019-03-13T11:52:49.553Z,30.48
2019-03-13T11:55:20.919Z,29.66
2019-03-13T11:57:55.770Z,29.18
2019-03-13T12:00:39.807Z,29.86
2019-03-13T12:03:25.077Z,30.23
2019-03-13T12:06:05.700Z,30.60
2019-03-13T12:08:34.348Z,31.09
2019-03-13T12:11:14.597Z,31.69
2019-03-13T12:14:00.008Z,32.11
2019-03-13T12:16:31.374Z,33.01
2019-03-13T12:19:09.000Z,32.88
2019-03-13T12:21:43.084Z,32.62
2019-03-13T12:24:14.334Z,32.89
2019-03-13T12:26:59.750Z,33.38
2019-03-13T12:29:44.901Z,33.14
2019-03-13T12:32:13.408Z,32.10
2019-03-13T12:34:57.273Z,31.55
2019-03-13T12:37:42.538Z,31.60
2019-03-13T12:40:24.590Z,31.86
2019-03-13T12:42:53.059Z,34.21
2019-03-13T12:45:24.347Z,33.73
2019-03-13T12:47:55.493Z,33.44
2019-03-13T12:50:40.792Z,32.57
2019-03-13T12:53:15.096Z,33.38
2019-03-13T12:55:49.694Z,33.24
2019-03-13T12:58:20.976Z,33.12
2019-03-13T13:01:01.569Z,34.02
2019-03-13T13:03:32.727Z,34.90
2019-03-13T13:06:17.786Z,34.00
2019-03-13T13:09:02.850Z,32.87
2019-03-13T13:11:48.608Z,32.98
2019-03-13T13:14:25.818Z,34.04
2019-03-13T13:16:54.553Z,33.44
2019-03-13T13:19:21.295Z,33.22
2019-03-13T13:21:48.019Z,32.82
2019-03-13T13:24:14.765Z,33.42
2019-03-13T13:26:41.513Z,34.62
2019-03-13T13:29:08.142Z,34.68
2019-03-13T13:31:34.851Z,34.73
2019-03-13T13:34:01.630Z,33.96
2019-03-13T13:36:28.359Z,34.50
2019-03-13T13:38:55.200Z,35.30
2019-03-13T13:41:21.870Z,36.00
2019-03-13T13:43:48.505Z,36.61
2019-03-13T13:46:18.177Z,34.98
2019-03-13T13:48:44.911Z,36.35
2019-03-13T13:51:11.661Z,37.77
2019-03-13T13:53:38.394Z,40.67
2019-03-13T13:56:05.044Z,43.10
2019-03-13T13:58:32.605Z,46.52
2019-03-13T14:00:59.344Z,49.62
2019-03-13T14:03:26.077Z,50.99
2019-03-13T14:05:52.816Z,50.81
2019-03-13T14:08:19.562Z,50.49
2019-03-13T14:10:46.300Z,50.81
2019-03-13T14:13:13.078Z,52.23
2019-03-13T14:15:40.295Z,51.60
2019-03-13T14:18:07.026Z,52.27
2019-03-13T14:20:33.778Z,53.25
2019-03-13T14:23:00.485Z,55.78
2019-03-13T14:25:27.253Z,57.24
2019-03-13T14:27:53.992Z,57.02
2019-03-13T14:30:22.048Z,58.37
2019-03-13T14:32:48.903Z,59.21
2019-03-13T14:35:15.571Z,59.80
2019-03-13T14:37:42.275Z,60.84
2019-03-13T14:40:14.133Z,59.77
2019-03-13T14:42:40.888Z,61.51
2019-03-13T14:45:16.285Z,59.54
2019-03-13T14:47:42.922Z,59.45
2019-03-13T14:50:12.272Z,60.40
2019-03-13T14:52:38.997Z,62.12
2019-03-13T14:55:10.786Z,62.04
2019-03-13T14:57:37.479Z,61.23
2019-03-13T15:00:23.587Z,62.92
2019-03-13T15:02:51.669Z,58.78
2019-03-13T15:05:18.391Z,59.24
2019-03-13T15:07:45.061Z,63.99
2019-03-13T15:10:20.730Z,61.27
2019-03-13T15:12:47.618Z,60.08
2019-03-13T15:15:18.761Z,62.73
2019-03-13T15:17:45.436Z,62.78
2019-03-13T15:20:22.230Z,63.60
2019-03-13T15:22:48.902Z,63.36
2019-03-13T15:25:15.565Z,64.75
2019-03-13T15:27:42.224Z,66.25
2019-03-13T15:30:15.298Z,65.74
2019-03-13T15:32:41.945Z,68.71
2019-03-13T15:35:09.985Z,69.34
2019-03-13T15:37:36.676Z,68.83
2019-03-13T15:40:05.643Z,70.58
2019-03-13T15:42:32.287Z,69.98
2019-03-13T15:44:59.091Z,70.70
2019-03-13T15:47:25.831Z,68.99
2019-03-13T15:49:53.543Z,68.71
2019-03-13T15:52:20.244Z,69.21
2019-03-13T15:54:46.881Z,68.71
2019-03-13T15:57:13.621Z,68.58
2019-03-13T15:59:40.331Z,69.58
2019-03-13T16:02:07.059Z,68.35
2019-03-13T16:04:33.875Z,68.67
2019-03-13T16:07:01.647Z,68.25
2019-03-13T16:09:28.355Z,68.39
2019-03-13T16:11:55.061Z,68.71
2019-03-13T16:14:21.775Z,69.14
2019-03-13T16:16:48.404Z,68.71
2019-03-13T16:19:15.141Z,68.88
2019-03-13T16:21:41.833Z,68.86
2019-03-13T16:24:08.574Z,68.32
2019-03-13T16:26:35.221Z,66.79
2019-03-13T16:29:01.995Z,67.50
2019-03-13T16:31:28.718Z,67.82
2019-03-13T16:33:55.416Z,67.86
2019-03-13T16:36:22.106Z,68.07
2019-03-13T16:38:48.743Z,68.61
2019-03-13T16:41:15.438Z,69.07
2019-03-13T16:43:42.276Z,69.39
2019-03-13T16:46:09.014Z,69.88
2019-03-13T16:48:35.680Z,69.60
2019-03-13T16:51:02.384Z,69.63
2019-03-13T16:53:29.133Z,69.10
2019-03-13T16:55:55.787Z,69.26
2019-03-13T16:58:22.529Z,69.75
2019-03-13T17:00:50.737Z,68.31
2019-03-13T17:03:17.757Z,68.92
2019-03-13T17:05:44.455Z,69.56
2019-03-13T17:08:11.180Z,70.31
2019-03-13T17:10:37.917Z,70.25
2019-03-13T17:13:05.746Z,69.30
2019-03-13T17:15:32.851Z,71.43
2019-03-13T17:17:59.489Z,70.72
2019-03-13T17:20:35.143Z,71.02
2019-03-13T17:23:02.286Z,70.65
2019-03-13T17:25:29.090Z,71.09
2019-03-13T17:27:55.795Z,70.74
2019-03-13T17:30:27.069Z,70.81
2019-03-13T17:32:54.059Z,70.17
2019-03-13T17:35:20.691Z,69.77
2019-03-13T17:37:47.482Z,70.69
2019-03-13T17:40:19.699Z,70.82
2019-03-13T17:42:46.446Z,71.71
2019-03-13T17:45:15.438Z,72.65
2019-03-13T17:47:42.188Z,72.17
2019-03-13T17:50:14.985Z,73.60
2019-03-13T17:52:41.793Z,74.57
2019-03-13T17:55:10.844Z,75.52
2019-03-13T17:57:38.606Z,75.33
2019-03-13T18:00:28.949Z,75.89
2019-03-13T18:02:55.794Z,75.64
2019-03-13T18:05:22.524Z,75.76
2019-03-13T18:07:49.375Z,76.24
2019-03-13T18:10:17.706Z,76.95
2019-03-13T18:12:44.439Z,76.26
2019-03-13T18:15:11.743Z,76.20
2019-03-13T18:17:38.407Z,76.34
2019-03-13T18:20:08.714Z,76.51
2019-03-13T18:22:35.460Z,76.95
2019-03-13T18:25:02.281Z,76.63
2019-03-13T18:27:28.984Z,75.62
2019-03-13T18:29:55.706Z,76.45
2019-03-13T18:32:22.332Z,76.78
2019-03-13T18:34:49.137Z,76.68
2019-03-13T18:37:15.986Z,77.24
2019-03-13T18:39:42.609Z,76.12
2019-03-13T18:42:09.357Z,76.32
2019-03-13T18:44:37.899Z,76.45
2019-03-13T18:47:05.955Z,76.89
2019-03-13T18:49:32.599Z,75.98
2019-03-13T18:51:59.277Z,75.22
2019-03-13T18:54:25.887Z,76.20
2019-03-13T18:56:52.527Z,76.92
2019-03-13T18:59:19.205Z,77.63
2019-03-13T19:01:45.835Z,76.92
2019-03-13T19:04:12.467Z,76.17
2019-03-13T19:06:39.237Z,76.89
2019-03-13T19:09:06.020Z,76.42
2019-03-13T19:11:34.502Z,76.53
2019-03-13T19:14:01.205Z,76.05
2019-03-13T19:16:28.825Z,76.64
2019-03-13T19:18:55.530Z,76.36
2019-03-13T19:21:22.242Z,76.09
2019-03-13T19:23:49.006Z,76.84
2019-03-13T19:26:15.719Z,77.57
2019-03-13T19:28:42.465Z,78.05
2019-03-13T19:31:10.087Z,78.53
2019-03-13T19:33:36.785Z,78.94
2019-03-13T19:36:03.493Z,78.15
2019-03-13T19:38:30.162Z,78.08
2019-03-13T19:40:56.872Z,78.07
2019-03-13T19:43:24.558Z,77.83
2019-03-13T19:45:51.211Z,78.52
2019-03-13T19:48:17.900Z,78.98
2019-03-13T19:50:44.624Z,77.75
2019-03-13T19:53:11.295Z,77.81
2019-03-13T19:55:38.002Z,77.68
2019-03-13T19:58:04.898Z,77.02
2019-03-13T20:00:31.580Z,77.25
2019-03-13T20:03:16.059Z,75.35
2019-03-13T20:05:45.702Z,76.60
2019-03-13T20:08:13.814Z,75.36
2019-03-13T20:10:39.905Z,74.92
2019-03-13T20:13:06.666Z,76.22
2019-03-13T20:15:34.446Z,76.50
2019-03-13T20:18:01.132Z,75.20
2019-03-13T20:20:31.352Z,76.22
2019-03-13T20:23:10.143Z,75.45
2019-03-13T20:25:38.664Z,75.54
2019-03-13T20:28:06.507Z,75.97
2019-03-13T20:30:33.459Z,75.81
2019-03-13T20:33:00.183Z,75.27
2019-03-13T20:35:26.817Z,75.98
2019-03-13T20:37:53.523Z,76.50
2019-03-13T20:40:21.706Z,75.90
2019-03-13T20:42:48.529Z,76.02
2019-03-13T20:45:22.955Z,76.55
2019-03-13T20:47:49.688Z,77.35
2019-03-13T20:50:16.536Z,77.07
2019-03-13T20:52:45.662Z,76.40
2019-03-13T20:55:16.597Z,76.01
2019-03-13T20:57:44.535Z,76.01
2019-03-13T21:00:25.922Z,76.68
2019-03-13T21:02:53.787Z,77.06
2019-03-13T21:05:20.622Z,76.78
2019-03-13T21:07:47.469Z,76.52
2019-03-13T21:10:17.430Z,77.40
2019-03-13T21:12:44.117Z,78.12
2019-03-13T21:15:20.480Z,78.66
2019-03-13T21:17:47.226Z,78.96
2019-03-13T21:20:15.838Z,79.59
2019-03-13T21:22:42.594Z,79.66
2019-03-13T21:25:11.535Z,79.43
2019-03-13T21:27:38.281Z,79.51
2019-03-13T21:30:14.811Z,78.50
2019-03-13T21:32:40.464Z,77.76
2019-03-13T21:35:07.200Z,77.40
2019-03-13T21:37:33.935Z,78.12
2019-03-13T21:40:00.683Z,77.58
2019-03-13T21:42:27.310Z,78.13
2019-03-13T21:44:54.051Z,77.75
2019-03-13T21:47:20.790Z,77.70
2019-03-13T21:49:47.538Z,77.86
2019-03-13T21:52:14.381Z,78.07
2019-03-13T21:54:41.110Z,78.26
2019-03-13T21:57:07.856Z,78.09
2019-03-13T21:59:34.594Z,77.83
2019-03-13T22:02:01.313Z,76.91
2019-03-13T22:04:27.967Z,76.50
2019-03-13T22:06:54.710Z,76.75
2019-03-13T22:09:21.453Z,76.63
2019-03-13T22:11:48.287Z,74.65
2019-03-13T22:14:15.035Z,73.25
2019-03-13T22:16:41.868Z,75.32
2019-03-13T22:19:08.506Z,76.33
2019-03-13T22:21:35.153Z,76.70
2019-03-13T22:24:02.093Z,77.76
2019-03-13T22:26:28.730Z,78.63
2019-03-13T22:28:55.464Z,78.40
2019-03-13T22:31:23.233Z,79.06
2019-03-13T22:33:50.038Z,79.31
2019-03-13T22:36:16.815Z,78.19
2019-03-13T22:38:43.562Z,78.51
2019-03-13T22:41:10.182Z,78.04
2019-03-13T22:43:36.829Z,77.95
2019-03-13T22:46:03.526Z,77.85
2019-03-13T22:48:30.196Z,77.96
2019-03-13T22:50:56.835Z,77.65
2019-03-13T22:53:23.577Z,77.64
2019-03-13T22:55:50.320Z,77.59
2019-03-13T22:58:17.053Z,77.14
2019-03-13T23:00:57.111Z,76.10
2019-03-13T23:03:26.914Z,76.63
2019-03-13T23:05:53.861Z,75.73
2019-03-13T23:08:21.006Z,75.98
2019-03-13T23:10:47.802Z,75.42
2019-03-13T23:13:17.205Z,74.70
2019-03-13T23:15:43.320Z,74.76
2019-03-13T23:18:10.020Z,73.91
2019-03-13T23:20:36.760Z,74.21
2019-03-13T23:23:03.502Z,74.44
2019-03-13T23:25:30.241Z,75.09
2019-03-13T23:27:57.080Z,75.08
2019-03-13T23:30:23.933Z,75.03
2019-03-13T23:32:50.970Z,75.42
2019-03-13T23:35:17.811Z,74.91
2019-03-13T23:37:44.589Z,75.26
2019-03-13T23:40:11.649Z,75.68
2019-03-13T23:42:38.615Z,76.17
2019-03-13T23:45:07.935Z,76.12
2019-03-13T23:47:34.673Z,76.03
2019-03-13T23:50:01.415Z,75.58
2019-03-13T23:52:28.153Z,75.79
2019-03-13T23:54:54.797Z,75.69
2019-03-13T23:57:21.532Z,75.60
2019-03-13T23:59:48.378Z,75.52
